KTTN/TTN METAR and TAF weather

Enter ICAO airport designator
Station Type Date Time Source
KTTN METAR 2020/02/28 07:53 UTC NOAA

KTTN 280753Z AUTO 27012G17KT 10SM FEW050 M02/M11 A2988 RMK AO2 SLP114 T10171106


Station Type Date Time Source
KTTN Decoded METAR 2020/02/28 07:53 UTC NOAA

TRENTON MERCER COUNTY AIRPORT , NJ, United States (KTTN) 40-17N 074-49W 59M
Feb 28, 2020 - 02:53 AM EST / 2020.02.28 0753 UTC
Wind: from the W (270 degrees) at 14 MPH (12 KT) gusting to 20 MPH (17 KT):0
Visibility: 10 mile(s):0
Sky conditions: mostly clear
Temperature: 28.9 F (-1.7 C)
Windchill: 17 F (-8 C):1
Dew Point: 12.9 F (-10.6 C)
Relative Humidity: 50%
Pressure (altimeter): 29.88 in. Hg (1011 hPa)
ob: KTTN 280753Z AUTO 27012G17KT 10SM FEW050 M02/M11 A2988 RMK AO2 SLP114 T10171106
cycle: 8

Station Type Date Time Source
KTTN TAF 2020/02/28 06:42 UTC NOAA

TAF KTTN 280539Z 2806/2906 25007G18KT P6SM FEW060
FM281000 26012KT P6SM FEW250
FM281500 26017G27KT P6SM SCT050
FM282300 28011KT P6SM BKN070

Example: see airport list